Main page
METAR-TAF:

METAR-TAF

Airports :

Al-Jawf Domestic Airport

Sakakah, Saudi Arabia

latitude: 29-47N, longitude: 040-06E, elevation: 689 m

Current weather observation

The report was made 52 minutes ago, at 08:00 UTC
Calm wind
Temperature 23°C
Humidity 25%
Pressure 1020 hPa
Visibility 10 km or more
no clouds below 1500 m and no cumulonimbus

METAR: OESK 030800Z 00000KT CAVOK 23/02 Q1020

Time: 11:52 (08:52 UTC)

Forecast

The report was made 9 hours and 52 minutes ago, at 23:00 UTC
Forecast valid from 03 at 00 UTC to 04 at 06 UTC
Wind 3 kt from variable directions
Visibility 10 km or more
no clouds below 1500 m and no cumulonimbus
Becoming
from 03 at 08 UTC to 03 at 10 UTC
Wind 12 kt from the West

TAF: OESK 022300Z 0300/0406 VRB03KT CAVOK BECMG 0308/0310 27012KT

Weather observations and forecasts of more than 4000 airports (METAR and TAF reports).

The available stations are represented by yellow and red dots on the map.

Hover mouse over dot to see the name of the station.

Then click to see weather observations and forecasts.

To change the map : click on the green buttons with a black cross to zoom in, on the green button with a dash to zoom out, or on the green arrows for adjacent maps.


METAR-TAF: